Jacqueline Cochran Regional Airport
KTRM : now visible

Airfield :











YOU CAN JOIN US ON...

 
LOGIN :

Register | Disclaimer

   EN    FR    IT 

 









Legend :    VFR   Marginal VFR   IFR   Intensive IFR   Very Intensive IFR
Visi :
Ceiling :
>= 8 km
>= 3000ft
5 to 8 km
1000 to 3000 ft
1500m to 5 km
500 to 1000 ft
800 to 1500m
200 to 500 ft
< 800m
< 200 ft
Symbols :   Thunderstorms  Fog  Heavy snow  Heavy precipitations  Wind > 20 kt






- Airport Elevation : -115 ft


KTRM - Jacqueline Cochran Regional

CURRENT METAR :
  • 100952Z AUTO 34007KT 10SM -RA FEW060 BKN080 OVC095 13/08 A3002 RMK AO2 RAE0854B47 SLP165 P0000 T01330083

EXPIRED METARs :
  • 100852Z AUTO 33004KT 10SM -RA BKN070 OVC090 13/08 A3003 RMK AO2 RAB01 SLP169 P0000 60000 T01330083 58005
  • 100752Z AUTO 35005KT 10SM OVC070 13/08 A3004 RMK AO2 RAB26E46 SLP172 P0000 T01330078 401890072

TAF KTRM
Valid from the 10 at 06:00 until the 11 at 06:00 UTC


100520Z 1006/1106 32008KT P6SM VCSH SCT050 OVC110
FM101100 VRB05KT P6SM -SHRA BKN035 OVC050
FM101900 13007KT P6SM VCSH SCT035 BKN050 OVC110
FM110300 32009KT P6SM SCT050 BKN110



MET'MAP, your aeronautical weather chart ! - Copyright ORBIFLY December 2007 - Disclaimer

ORBIFLY MET'MAP TEAM :

Programming & Development : Alexandra Zaïnal
Concept & original design : Baudouin d'Aumeries
Assistance for programming : Marc-Olivier Méhu
Technical & hardware support : Manuel Goepfert

Contact : metmap@orbifly.com




SOURCES & CREDITS :

   NOAA       Earth
Advisory